Back to Top

Language: 

My Weather Underground Personal Weather Station Historical Data with Graphs...

Delerius Weather Station Historical Data
Daily Summary for October 25, 2017 Units:  Metric    English   Both
« Previous Day
Next Day »
Daily Weekly Monthly Yearly Custom
  High: Low: Average:
Temperature: 16.2 °C 9.9 °C 12.9 °C
Dew Point: 13.9 °C 8.1 °C 10.1 °C
Humidity: 92 % 69 % 83 %
Wind Speed: 25.7 km/h 0 km/h 10.9 km/h
Wind Gust: 45.1 km/h - -
Wind:- - WSW
Pressure: 1021.9 hPa 1008.7 hPa -
Precipitation: 0.25 mm    
Historical Graphs
 
 
Tabular Data for October 25, 2017
Time Temperature Dew Point Pressure Wind Wind Speed Wind Gust Humidity Rainfall Rate (Hourly) solar Conditions
00:00 16.2 °C 13.8 °C 1010 hPa SSW 20.9 km/h 32.2 km/h 86 % 0 mm 0 W/m2
00:05 16.1 °C 13.9 °C 1009.7 hPa SSW 22.5 km/h 33.8 km/h 87 % 0 mm 0 W/m2
00:10 16 °C 13.8 °C 1009.7 hPa SSW 24.1 km/h 37 km/h 87 % 0 mm 0 W/m2
00:15 15.9 °C 13.7 °C 1009.7 hPa SW 19.3 km/h 33.8 km/h 87 % 0 mm 0 W/m2
00:20 15.9 °C 13.7 °C 1010 hPa SSW 14.5 km/h 25.7 km/h 87 % 0 mm 0 W/m2
00:25 15.9 °C 13.7 °C 1009.7 hPa SW 19.3 km/h 32.2 km/h 87 % 0 mm 0 W/m2
00:30 15.9 °C 13.6 °C 1009.7 hPa SW 20.9 km/h 40.2 km/h 86 % 0 mm 0 W/m2
00:35 15.9 °C 13.6 °C 1009.7 hPa SSW 16.1 km/h 22.5 km/h 86 % 0 mm 0 W/m2
00:40 16 °C 13.5 °C 1009.7 hPa SSW 22.5 km/h 38.6 km/h 85 % 0 mm 0 W/m2
00:45 16 °C 13.5 °C 1009.7 hPa SW 16.1 km/h 24.1 km/h 85 % 0 mm 0 W/m2
00:55 16 °C 13.5 °C 1009.7 hPa SSW 16.1 km/h 22.5 km/h 85 % 0 mm 0 W/m2
01:00 16 °C 13.5 °C 1009.4 hPa SSW 22.5 km/h 32.2 km/h 85 % 0 mm 0 W/m2
01:05 16 °C 13.5 °C 1009.4 hPa SSW 19.3 km/h 32.2 km/h 85 % 0 mm 0 W/m2
01:10 16.1 °C 13.6 °C 1009.4 hPa SSW 20.9 km/h 40.2 km/h 85 % 0 mm 0 W/m2
01:15 16 °C 13.5 °C 1009.4 hPa SSW 16.1 km/h 24.1 km/h 85 % 0 mm 0 W/m2
01:20 15.9 °C 13.4 °C 1009.7 hPa SSW 17.7 km/h 32.2 km/h 85 % 0 mm 0 W/m2
01:25 15.9 °C 13.4 °C 1009.4 hPa SW 16.1 km/h 25.7 km/h 85 % 0 mm 0 W/m2
01:30 15.9 °C 13.4 °C 1009.4 hPa SSW 11.3 km/h 16.1 km/h 85 % 0 mm 0 W/m2
01:31 15.9 °C 13.4 °C 1009.4 hPa SSW 11.3 km/h 19.3 km/h 85 % 0 mm 0 W/m2
01:36 15.9 °C 13.4 °C 1009.4 hPa SSW 17.7 km/h 32.2 km/h 85 % 0 mm 0 W/m2
01:41 15.9 °C 13.4 °C 1009.4 hPa SSW 19.3 km/h 37 km/h 85 % 0 mm 0 W/m2
01:46 15.9 °C 13.2 °C 1009.4 hPa SSW 14.5 km/h 29 km/h 84 % 0 mm 0 W/m2
01:51 16 °C 13.3 °C 1009.4 hPa SW 12.9 km/h 19.3 km/h 84 % 0 mm 0 W/m2
01:56 16 °C 13.3 °C 1009.4 hPa SW 25.7 km/h 35.4 km/h 84 % 0 mm 0 W/m2
02:01 16.1 °C 13.2 °C 1009.4 hPa SW 19.3 km/h 33.8 km/h 83 % 0 mm 0 W/m2
02:06 16.2 °C 13.3 °C 1009 hPa SW 16.1 km/h 29 km/h 83 % 0 mm 0 W/m2
02:11 16.2 °C 13.3 °C 1009 hPa SW 25.7 km/h 45.1 km/h 83 % 0 mm 0 W/m2
02:16 16.1 °C 13.2 °C 1009 hPa WSW 14.5 km/h 25.7 km/h 83 % 0 mm 0 W/m2
02:21 15.9 °C 13.2 °C 1008.7 hPa SW 20.9 km/h 32.2 km/h 84 % 0 mm 0 W/m2
02:26 15.7 °C 13.2 °C 1009 hPa SW 17.7 km/h 29 km/h 85 % 0 mm 0 W/m2
02:31 15.6 °C 13.1 °C 1009 hPa WSW 12.9 km/h 30.6 km/h 85 % 0 mm 0 W/m2
02:36 15.4 °C 13.1 °C 1009 hPa SW 14.5 km/h 22.5 km/h 86 % 0 mm 0 W/m2
02:41 15.3 °C 13.2 °C 1009 hPa SW 16.1 km/h 29 km/h 87 % 0 mm 0 W/m2
02:46 15.2 °C 13.1 °C 1009 hPa SW 20.9 km/h 30.6 km/h 87 % 0 mm 0 W/m2
02:51 15.1 °C 12.9 °C 1009 hPa SW 22.5 km/h 41.8 km/h 87 % 0 mm 0 W/m2
02:56 15.1 °C 12.9 °C 1009 hPa WSW 14.5 km/h 38.6 km/h 87 % 0 mm 0 W/m2
03:01 15.1 °C 12.9 °C 1009.4 hPa WSW 22.5 km/h 32.2 km/h 87 % 0 mm 0 W/m2
03:06 15.1 °C 12.9 °C 1009.4 hPa WSW 16.1 km/h 29 km/h 87 % 0 mm 0 W/m2
03:11 15.1 °C 12.9 °C 1009.7 hPa WSW 17.7 km/h 25.7 km/h 87 % 0 mm 0 W/m2
03:16 15.1 °C 12.9 °C 1009.7 hPa West 19.3 km/h 35.4 km/h 87 % 0 mm 0 W/m2
03:21 15.1 °C 12.9 °C 1010.4 hPa WNW 22.5 km/h 41.8 km/h 87 % 0.25 mm 0 W/m2
03:27 14.6 °C 12.4 °C 1010.7 hPa NW 19.3 km/h 32.2 km/h 87 % 0.25 mm 0 W/m2
03:32 14 °C 12.1 °C 1010.7 hPa NW 20.9 km/h 30.6 km/h 88 % 0.25 mm 0 W/m2
03:37 13.6 °C 11.8 °C 1010.7 hPa WNW 14.5 km/h 30.6 km/h 89 % 0.25 mm 0 W/m2
03:42 13.3 °C 11.5 °C 1011.1 hPa WNW 17.7 km/h 30.6 km/h 89 % 0.25 mm 0 W/m2
03:47 13.1 °C 11.5 °C 1011.1 hPa NW 17.7 km/h 25.7 km/h 90 % 0.25 mm 0 W/m2
03:52 12.9 °C 11.4 °C 1011.1 hPa WNW 16.1 km/h 24.1 km/h 91 % 0.25 mm 0 W/m2
03:57 12.8 °C 11.4 °C 1011.4 hPa WNW 16.1 km/h 25.7 km/h 91 % 0.25 mm 0 W/m2
04:02 12.6 °C 11.2 °C 1011.4 hPa WNW 12.9 km/h 22.5 km/h 91 % 0.25 mm 0 W/m2
04:07 12.6 °C 11.2 °C 1011.4 hPa West 11.3 km/h 19.3 km/h 91 % 0.25 mm 0 W/m2
04:12 12.5 °C 11.1 °C 1011.4 hPa West 17.7 km/h 24.1 km/h 91 % 0.25 mm 0 W/m2
04:17 12.4 °C 11.1 °C 1011.4 hPa WNW 16.1 km/h 25.7 km/h 92 % 0.25 mm 0 W/m2
04:22 12.2 °C 10.8 °C 1011.4 hPa WNW 17.7 km/h 25.7 km/h 91 % 0 mm 0 W/m2
04:27 12.2 °C 10.8 °C 1011.7 hPa WNW 16.1 km/h 25.7 km/h 91 % 0 mm 0 W/m2
04:32 12.1 °C 10.7 °C 1011.4 hPa WNW 14.5 km/h 22.5 km/h 91 % 0 mm 0 W/m2
04:37 12.1 °C 10.7 °C 1011.7 hPa WNW 16.1 km/h 25.7 km/h 91 % 0 mm 0 W/m2
04:47 12 °C 10.6 °C 1011.7 hPa WNW 16.1 km/h 25.7 km/h 91 % 0 mm 0 W/m2
04:52 11.9 °C 10.3 °C 1011.7 hPa WNW 16.1 km/h 25.7 km/h 90 % 0 mm 0 W/m2
04:57 11.9 °C 10.3 °C 1011.7 hPa WNW 17.7 km/h 24.1 km/h 90 % 0 mm 0 W/m2
05:02 11.8 °C 10.2 °C 1011.7 hPa WNW 12.9 km/h 17.7 km/h 90 % 0 mm 0 W/m2
05:07 11.8 °C 10.2 °C 1012.1 hPa WNW 16.1 km/h 22.5 km/h 90 % 0 mm 0 W/m2
05:12 11.8 °C 10.2 °C 1012.1 hPa West 19.3 km/h 29 km/h 90 % 0 mm 0 W/m2
05:17 11.8 °C 10.2 °C 1012.1 hPa West 19.3 km/h 32.2 km/h 90 % 0 mm 0 W/m2
05:22 11.9 °C 10.3 °C 1012.1 hPa West 16.1 km/h 22.5 km/h 90 % 0 mm 0 W/m2
05:27 11.8 °C 10.2 °C 1012.1 hPa West 19.3 km/h 30.6 km/h 90 % 0 mm 0 W/m2
05:32 11.9 °C 10.3 °C 1012.1 hPa West 17.7 km/h 29 km/h 90 % 0 mm 0 W/m2
05:37 11.9 °C 10.3 °C 1012.4 hPa West 20.9 km/h 29 km/h 90 % 0 mm 0 W/m2
05:42 12.1 °C 10.5 °C 1012.4 hPa WNW 16.1 km/h 30.6 km/h 90 % 0 mm 0 W/m2
05:47 12.2 °C 10.6 °C 1012.8 hPa WNW 16.1 km/h 24.1 km/h 90 % 0 mm 0 W/m2
05:52 12.2 °C 10.6 °C 1012.8 hPa WNW 14.5 km/h 22.5 km/h 90 % 0 mm 0 W/m2
05:57 12.2 °C 10.8 °C 1012.8 hPa WNW 16.1 km/h 30.6 km/h 91 % 0 mm 0 W/m2
06:02 12.1 °C 10.7 °C 1012.8 hPa WNW 16.1 km/h 30.6 km/h 91 % 0 mm 0 W/m2
06:07 12.1 °C 10.8 °C 1012.8 hPa WNW 16.1 km/h 22.5 km/h 92 % 0 mm 0 W/m2
06:12 11.9 °C 10.7 °C 1012.8 hPa West 14.5 km/h 22.5 km/h 92 % 0 mm 0 W/m2
06:18 11.8 °C 10.6 °C 1013.1 hPa WNW 11.3 km/h 19.3 km/h 92 % 0 mm 0 W/m2
06:23 11.7 °C 10.3 °C 1013.1 hPa West 12.9 km/h 20.9 km/h 91 % 0 mm 0 W/m2
06:28 11.7 °C 10.3 °C 1013.1 hPa West 16.1 km/h 22.5 km/h 91 % 0 mm 0 W/m2
06:33 11.6 °C 10.2 °C 1013.1 hPa West 12.9 km/h 24.1 km/h 91 % 0 mm 0 W/m2
06:38 11.5 °C 9.9 °C 1013.4 hPa WNW 14.5 km/h 24.1 km/h 90 % 0 mm 0 W/m2
06:43 11.5 °C 9.7 °C 1013.4 hPa WNW 9.7 km/h 17.7 km/h 89 % 0 mm 0 W/m2
06:48 11.4 °C 9.7 °C 1013.4 hPa WNW 11.3 km/h 19.3 km/h 89 % 0 mm 0 W/m2
06:53 11.4 °C 9.7 °C 1013.4 hPa WNW 9.7 km/h 19.3 km/h 89 % 0 mm 0 W/m2
06:58 11.4 °C 9.7 °C 1013.8 hPa WNW 12.9 km/h 20.9 km/h 89 % 0 mm 0 W/m2
07:03 11.4 °C 9.5 °C 1013.8 hPa WNW 12.9 km/h 20.9 km/h 88 % 0 mm 0 W/m2
07:08 11.3 °C 9.4 °C 1014.1 hPa WNW 9.7 km/h 14.5 km/h 88 % 0 mm 0 W/m2
07:13 11.3 °C 9.4 °C 1014.1 hPa WNW 16.1 km/h 24.1 km/h 88 % 0 mm 0 W/m2
07:18 11.5 °C 9.6 °C 1014.1 hPa WNW 20.9 km/h 32.2 km/h 88 % 0 mm 0 W/m2
07:23 11.6 °C 9.5 °C 1014.1 hPa West 17.7 km/h 25.7 km/h 87 % 0 mm 0 W/m2
07:28 11.6 °C 9.5 °C 1014.1 hPa West 16.1 km/h 30.6 km/h 87 % 0 mm 0 W/m2
07:33 11.6 °C 9.5 °C 1014.1 hPa West 19.3 km/h 32.2 km/h 87 % 0 mm 0 W/m2
07:38 11.6 °C 9.3 °C 1014.4 hPa West 17.7 km/h 32.2 km/h 86 % 0 mm 0 W/m2
07:43 11.6 °C 9.3 °C 1014.4 hPa West 14.5 km/h 24.1 km/h 86 % 0 mm 0 W/m2
07:48 11.5 °C 9.2 °C 1014.4 hPa West 6.4 km/h 14.5 km/h 86 % 0 mm 0 W/m2
07:53 11.4 °C 9.3 °C 1014.8 hPa West 9.7 km/h 16.1 km/h 87 % 0 mm 0 W/m2
07:58 11.4 °C 9.2 °C 1014.8 hPa West 9.7 km/h 19.3 km/h 86 % 0 mm 7 W/m2
08:03 11.3 °C 9.1 °C 1015.1 hPa WNW 4.8 km/h 9.7 km/h 86 % 0 mm 9 W/m2
08:08 11.3 °C 9.1 °C 1015.1 hPa WSW 3.2 km/h 11.3 km/h 86 % 0 mm 11 W/m2
08:13 11.3 °C 9.1 °C 1015.1 hPa SE 3.2 km/h 8 km/h 86 % 0 mm 14 W/m2
08:18 11.3 °C 9.2 °C 1015.5 hPa ESE 3.2 km/h 8 km/h 87 % 0 mm 28 W/m2
08:23 11.3 °C 9.2 °C 1015.5 hPa SE 1.6 km/h 3.2 km/h 87 % 0 mm 40 W/m2
08:28 11.4 °C 9.3 °C 1015.8 hPa Calm   1.6 km/h 87 % 0 mm 51 W/m2
08:33 11.5 °C 9.4 °C 1015.8 hPa SSE 1.6 km/h 6.4 km/h 87 % 0 mm 21 W/m2
08:38 11.6 °C 9.5 °C 1015.8 hPa WSW 4.8 km/h 12.9 km/h 87 % 0 mm 26 W/m2
08:43 11.6 °C 9.3 °C 1016.1 hPa West 3.2 km/h 8 km/h 86 % 0 mm 14 W/m2
08:48 11.7 °C 9.6 °C 1016.1 hPa WSW 4.8 km/h 11.3 km/h 87 % 0 mm 18 W/m2
08:54 11.7 °C 9.6 °C 1016.1 hPa SW 3.2 km/h 9.7 km/h 87 % 0 mm 23 W/m2
08:59 11.7 °C 9.6 °C 1016.1 hPa West 4.8 km/h 11.3 km/h 87 % 0 mm 30 W/m2
09:04 11.7 °C 9.6 °C 1016.1 hPa Calm   1.6 km/h 87 % 0 mm 40 W/m2
09:09 11.7 °C 9.6 °C 1016.1 hPa SW 1.6 km/h 8 km/h 87 % 0 mm 56 W/m2
09:14 11.8 °C 9.7 °C 1016.5 hPa SW 1.6 km/h 6.4 km/h 87 % 0 mm 28 W/m2
09:19 11.8 °C 9.7 °C 1016.5 hPa Calm   1.6 km/h 87 % 0 mm 35 W/m2
09:22 11.8 °C 9.7 °C 1016.8 hPa Calm   3.2 km/h 87 % 0 mm 32 W/m2
09:27 11.8 °C 9.7 °C 1016.8 hPa Calm     87 % 0 mm 28 W/m2
09:32 11.9 °C 9.8 °C 1016.8 hPa West 3.2 km/h 8 km/h 87 % 0 mm 30 W/m2
09:38 11.9 °C 9.8 °C 1016.8 hPa WSW 8 km/h 12.9 km/h 87 % 0 mm 33 W/m2
09:43 11.9 °C 9.8 °C 1016.8 hPa SW 8 km/h 12.9 km/h 87 % 0 mm 56 W/m2
09:48 12 °C 9.9 °C 1017.2 hPa WSW 4.8 km/h 11.3 km/h 87 % 0 mm 132 W/m2
09:53 12.2 °C 10.1 °C 1017.2 hPa WSW 8 km/h 11.3 km/h 87 % 0 mm 158 W/m2
09:58 12.3 °C 10 °C 1017.2 hPa WSW 6.4 km/h 12.9 km/h 86 % 0 mm 179 W/m2
10:03 12.5 °C 10.2 °C 1017.2 hPa West 9.7 km/h 12.9 km/h 86 % 0 mm 183 W/m2
10:08 12.6 °C 10.2 °C 1017.2 hPa West 14.5 km/h 20.9 km/h 85 % 0 mm 148 W/m2
10:13 12.6 °C 9.9 °C 1017.5 hPa West 12.9 km/h 22.5 km/h 84 % 0 mm 216 W/m2
10:18 12.7 °C 10.1 °C 1017.5 hPa West 16.1 km/h 24.1 km/h 84 % 0 mm 193 W/m2
10:20 12.7 °C 10.1 °C 1017.5 hPa West 14.5 km/h 22.5 km/h 84 % 0 mm 225 W/m2
10:24 12.8 °C 10.2 °C 1017.5 hPa West 12.9 km/h 22.5 km/h 84 % 0 mm 294 W/m2
10:29 12.9 °C 10.1 °C 1017.2 hPa WSW 20.9 km/h 35.4 km/h 83 % 0 mm 214 W/m2
10:34 12.9 °C 9.9 °C 1017.2 hPa West 19.3 km/h 30.6 km/h 82 % 0 mm 149 W/m2
10:39 12.9 °C 9.9 °C 1017.2 hPa West 16.1 km/h 24.1 km/h 82 % 0 mm 156 W/m2
10:44 12.8 °C 9.8 °C 1017.5 hPa West 14.5 km/h 20.9 km/h 82 % 0 mm 155 W/m2
10:49 12.9 °C 9.9 °C 1017.5 hPa West 11.3 km/h 24.1 km/h 82 % 0 mm 181 W/m2
10:54 12.9 °C 9.9 °C 1017.8 hPa West 17.7 km/h 25.7 km/h 82 % 0 mm 151 W/m2
10:59 13 °C 10 °C 1017.8 hPa West 9.7 km/h 14.5 km/h 82 % 0 mm 128 W/m2
11:04 13 °C 9.8 °C 1017.8 hPa West 12.9 km/h 17.7 km/h 81 % 0 mm 167 W/m2
11:10 13.1 °C 9.9 °C 1017.8 hPa WSW 12.9 km/h 12.9 km/h 81 % 0 mm 183 W/m2
11:16 13.2 °C 9.8 °C 1017.8 hPa WSW 19.3 km/h 19.3 km/h 80 % 0 mm 214 W/m2
11:21 13.4 °C 10 °C 1017.8 hPa West 16.1 km/h 22.5 km/h 80 % 0 mm 413 W/m2
11:26 13.5 °C 10.1 °C 1017.8 hPa West 16.1 km/h 19.3 km/h 80 % 0 mm 383 W/m2
11:31 13.8 °C 10.2 °C 1017.8 hPa WNW 19.3 km/h 20.9 km/h 79 % 0 mm 390 W/m2
11:36 13.8 °C 10.1 °C 1017.8 hPa West 17.7 km/h 35.4 km/h 78 % 0 mm 327 W/m2
11:41 13.8 °C 10.1 °C 1018.2 hPa WSW 16.1 km/h 29 km/h 78 % 0 mm 178 W/m2
11:46 13.7 °C 9.7 °C 1018.2 hPa West 19.3 km/h 33.8 km/h 77 % 0 mm 153 W/m2
11:51 13.6 °C 9.8 °C 1018.2 hPa West 20.9 km/h 32.2 km/h 78 % 0 mm 165 W/m2
11:56 13.4 °C 9.7 °C 1018.5 hPa West 20.9 km/h 35.4 km/h 78 % 0 mm 153 W/m2
12:01 13.3 °C 9.7 °C 1018.5 hPa West 17.7 km/h 29 km/h 79 % 0 mm 137 W/m2
12:06 13.3 °C 9.7 °C 1018.5 hPa West 14.5 km/h 24.1 km/h 79 % 0 mm 149 W/m2
12:11 13.3 °C 9.9 °C 1018.5 hPa West 16.1 km/h 29 km/h 80 % 0 mm 174 W/m2
12:16 13.3 °C 9.9 °C 1018.5 hPa West 16.1 km/h 22.5 km/h 80 % 0 mm 155 W/m2
12:21 13.3 °C 9.9 °C 1018.5 hPa West 16.1 km/h 30.6 km/h 80 % 0 mm 151 W/m2
12:26 13.3 °C 9.7 °C 1018.5 hPa WSW 12.9 km/h 22.5 km/h 79 % 0 mm 149 W/m2
12:31 13.3 °C 9.7 °C 1018.5 hPa West 12.9 km/h 20.9 km/h 79 % 0 mm 156 W/m2
12:36 13.4 °C 9.8 °C 1018.8 hPa West 12.9 km/h 20.9 km/h 79 % 0 mm 264 W/m2
12:41 13.5 °C 9.9 °C 1018.5 hPa West 11.3 km/h 22.5 km/h 79 % 0 mm 250 W/m2
12:46 13.7 °C 10.1 °C 1018.5 hPa West 9.7 km/h 19.3 km/h 79 % 0 mm 448 W/m2
12:51 14.1 °C 10.5 °C 1018.5 hPa West 14.5 km/h 29 km/h 79 % 0 mm 526 W/m2
12:56 14.4 °C 10.2 °C 1018.5 hPa West 16.1 km/h 25.7 km/h 76 % 0 mm 480 W/m2
13:01 14.6 °C 10.2 °C 1018.5 hPa West 20.9 km/h 35.4 km/h 75 % 0 mm 262 W/m2
13:06 14.7 °C 10.3 °C 1018.5 hPa West 14.5 km/h 32.2 km/h 75 % 0 mm 241 W/m2
13:11 14.7 °C 10.3 °C 1018.5 hPa WNW 20.9 km/h 33.8 km/h 75 % 0 mm 206 W/m2
13:16 14.8 °C 10.2 °C 1018.5 hPa West 22.5 km/h 35.4 km/h 74 % 0 mm 570 W/m2
13:21 14.9 °C 10.3 °C 1018.5 hPa West 22.5 km/h 37 km/h 74 % 0 mm 469 W/m2
13:26 15 °C 10 °C 1018.5 hPa West 25.7 km/h 38.6 km/h 72 % 0 mm 267 W/m2
13:31 14.8 °C 9.8 °C 1018.5 hPa West 25.7 km/h 43.5 km/h 72 % 0 mm 250 W/m2
13:36 14.5 °C 9.7 °C 1018.5 hPa West 14.5 km/h 24.1 km/h 73 % 0 mm 258 W/m2
13:42 14.5 °C 9.9 °C 1018.5 hPa West 12.9 km/h 33.8 km/h 74 % 0 mm 114 W/m2
13:47 14.4 °C 9.8 °C 1018.5 hPa West 19.3 km/h 35.4 km/h 74 % 0 mm 339 W/m2
13:52 14.5 °C 9.9 °C 1018.5 hPa West 17.7 km/h 30.6 km/h 74 % 0 mm 411 W/m2
13:57 14.7 °C 10.1 °C 1018.5 hPa West 19.3 km/h 33.8 km/h 74 % 0 mm 413 W/m2
14:02 14.7 °C 9.9 °C 1018.5 hPa WSW 17.7 km/h 30.6 km/h 73 % 0 mm 288 W/m2
14:07 14.7 °C 9.9 °C 1018.5 hPa West 16.1 km/h 25.7 km/h 73 % 0 mm 172 W/m2
14:12 14.6 °C 9.8 °C 1018.5 hPa West 19.3 km/h 32.2 km/h 73 % 0 mm 297 W/m2
14:18 14.5 °C 10.1 °C 1018.5 hPa West 17.7 km/h 19.3 km/h 75 % 0 mm 404 W/m2
14:23 14.6 °C 9.8 °C 1018.5 hPa West 20.9 km/h 33.8 km/h 73 % 0 mm 392 W/m2
14:28 14.8 °C 10 °C 1018.5 hPa West 19.3 km/h 30.6 km/h 73 % 0 mm 446 W/m2
14:33 15 °C 10.2 °C 1018.5 hPa West 17.7 km/h 35.4 km/h 73 % 0 mm 464 W/m2
14:43 15.3 °C 10.3 °C 1018.5 hPa West 22.5 km/h 35.4 km/h 72 % 0 mm 461 W/m2
14:48 15.2 °C 10.2 °C 1018.8 hPa West 24.1 km/h 40.2 km/h 72 % 0 mm 330 W/m2
14:53 14.9 °C 10.1 °C 1018.8 hPa WSW 22.5 km/h 29 km/h 73 % 0 mm 130 W/m2
14:58 14.6 °C 10 °C 1018.8 hPa West 17.7 km/h 32.2 km/h 74 % 0 mm 239 W/m2
15:04 14.5 °C 9.9 °C 1018.5 hPa WSW 19.3 km/h 30.6 km/h 74 % 0 mm 218 W/m2
15:09 14.4 °C 9.6 °C 1018.8 hPa West 22.5 km/h 33.8 km/h 73 % 0 mm 236 W/m2
15:14 14.6 °C 10 °C 1018.8 hPa West 14.5 km/h 24.1 km/h 74 % 0 mm 334 W/m2
15:19 14.7 °C 9.7 °C 1018.8 hPa West 19.3 km/h 35.4 km/h 72 % 0 mm 345 W/m2
15:24 14.8 °C 9.8 °C 1018.5 hPa West 17.7 km/h 25.7 km/h 72 % 0 mm 330 W/m2
15:29 14.9 °C 9.7 °C 1018.5 hPa West 20.9 km/h 30.6 km/h 71 % 0 mm 290 W/m2
15:34 15.1 °C 9.9 °C 1018.5 hPa West 17.7 km/h 35.4 km/h 71 % 0 mm 290 W/m2
15:39 15.1 °C 9.7 °C 1018.5 hPa West 19.3 km/h 32.2 km/h 70 % 0 mm 262 W/m2
15:44 15.1 °C 9.4 °C 1018.8 hPa West 17.7 km/h 33.8 km/h 69 % 0 mm 248 W/m2
15:49 15.1 °C 9.4 °C 1018.5 hPa WNW 17.7 km/h 29 km/h 69 % 0 mm 239 W/m2
15:56 15.1 °C 9.4 °C 1018.5 hPa West 11.3 km/h 25.7 km/h 69 % 0 mm 230 W/m2
16:01 15.1 °C 9.4 °C 1018.8 hPa West 14.5 km/h 22.5 km/h 69 % 0 mm 216 W/m2
16:06 15.1 °C 9.4 °C 1018.8 hPa West 11.3 km/h 17.7 km/h 69 % 0 mm 199 W/m2
16:11 14.9 °C 9.3 °C 1018.8 hPa West 12.9 km/h 19.3 km/h 69 % 0 mm 183 W/m2
16:16 14.8 °C 9.4 °C 1019.2 hPa WNW 4.8 km/h 12.9 km/h 70 % 0 mm 167 W/m2
16:21 14.7 °C 9.5 °C 1018.8 hPa WNW 3.2 km/h 11.3 km/h 71 % 0 mm 46 W/m2
16:26 14.6 °C 9.4 °C 1019.2 hPa West 9.7 km/h 14.5 km/h 71 % 0 mm 40 W/m2
16:31 14.6 °C 9.4 °C 1019.2 hPa West 6.4 km/h 16.1 km/h 71 % 0 mm 39 W/m2
16:36 14.5 °C 9.3 °C 1019.2 hPa WSW 4.8 km/h 9.7 km/h 71 % 0 mm 40 W/m2
16:41 14.4 °C 9.2 °C 1019.2 hPa South 3.2 km/h 8 km/h 71 % 0 mm 42 W/m2
16:46 14.4 °C 9.2 °C 1019.2 hPa South 1.6 km/h 3.2 km/h 71 % 0 mm 33 W/m2
17:05 14 °C 9.2 °C 1019.5 hPa Calm     73 % 0 mm 33 W/m2
17:10 13.9 °C 9.3 °C 1019.5 hPa Calm     74 % 0 mm 25 W/m2
17:15 13.7 °C 9.2 °C 1019.5 hPa Calm     74 % 0 mm 23 W/m2
17:20 13.5 °C 9.2 °C 1019.5 hPa Calm     75 % 0 mm 23 W/m2
17:25 13.3 °C 9.2 °C 1019.5 hPa Calm     76 % 0 mm 16 W/m2
17:30 13.1 °C 9.2 °C 1019.9 hPa Calm   1.6 km/h 77 % 0 mm 18 W/m2
17:35 13 °C 9.1 °C 1019.9 hPa Calm     77 % 0 mm 18 W/m2
17:40 12.9 °C 9.3 °C 1019.9 hPa Calm     79 % 0 mm 9 W/m2
17:45 12.9 °C 9.3 °C 1019.9 hPa Calm   3.2 km/h 79 % 0 mm 5 W/m2
17:50 12.9 °C 9.2 °C 1019.9 hPa SSW 1.6 km/h 6.4 km/h 78 % 0 mm 0 W/m2
17:55 12.9 °C 9.2 °C 1019.9 hPa Calm     78 % 0 mm 0 W/m2
18:00 12.9 °C 9.2 °C 1019.9 hPa Calm     78 % 0 mm 0 W/m2
18:05 12.9 °C 9.2 °C 1020.2 hPa Calm     78 % 0 mm 0 W/m2
18:10 12.8 °C 9.1 °C 1020.2 hPa WSW 1.6 km/h 8 km/h 78 % 0 mm 0 W/m2
18:11 12.8 °C 9.1 °C 1020.2 hPa WSW 3.2 km/h 8 km/h 78 % 0 mm 0 W/m2
18:16 12.8 °C 9.1 °C 1020.2 hPa Calm   1.6 km/h 78 % 0 mm 0 W/m2
18:21 12.8 °C 9.2 °C 1019.9 hPa WSW 1.6 km/h 3.2 km/h 79 % 0 mm 0 W/m2
18:26 12.7 °C 9.2 °C 1020.2 hPa WSW 3.2 km/h 8 km/h 79 % 0 mm 0 W/m2
18:31 12.6 °C 9.1 °C 1020.2 hPa SW 1.6 km/h 4.8 km/h 79 % 0 mm 0 W/m2
18:36 12.5 °C 8.9 °C 1020.2 hPa SW 1.6 km/h 3.2 km/h 79 % 0 mm 0 W/m2
18:41 12.4 °C 9.1 °C 1020.2 hPa WSW 3.2 km/h 6.4 km/h 80 % 0 mm 0 W/m2
18:46 12.3 °C 8.9 °C 1020.2 hPa WSW 1.6 km/h 3.2 km/h 80 % 0 mm 0 W/m2
18:51 12.1 °C 8.9 °C 1020.5 hPa WSW 1.6 km/h 3.2 km/h 81 % 0 mm 0 W/m2
18:56 11.9 °C 8.7 °C 1020.5 hPa WSW 1.6 km/h 3.2 km/h 81 % 0 mm 0 W/m2
19:01 11.8 °C 8.8 °C 1020.5 hPa Calm   1.6 km/h 82 % 0 mm 0 W/m2
19:06 11.7 °C 8.7 °C 1020.5 hPa Calm   1.6 km/h 82 % 0 mm 0 W/m2
19:11 11.6 °C 8.6 °C 1020.5 hPa Calm   1.6 km/h 82 % 0 mm 0 W/m2
19:13 11.5 °C 8.7 °C 1020.9 hPa WSW 1.6 km/h 4.8 km/h 83 % 0 mm 0 W/m2
19:18 11.4 °C 8.6 °C 1020.9 hPa WSW 1.6 km/h 3.2 km/h 83 % 0 mm 0 W/m2
19:23 11.3 °C 8.7 °C 1020.9 hPa Calm   1.6 km/h 84 % 0 mm 0 W/m2
19:28 11.2 °C 8.6 °C 1020.9 hPa WSW 1.6 km/h 3.2 km/h 84 % 0 mm 0 W/m2
19:33 11.2 °C 8.6 °C 1020.9 hPa Calm   1.6 km/h 84 % 0 mm 0 W/m2
19:39 11.1 °C 8.7 °C 1020.9 hPa Calm     85 % 0 mm 0 W/m2
19:44 11 °C 8.6 °C 1020.9 hPa Calm     85 % 0 mm 0 W/m2
19:49 10.9 °C 8.5 °C 1020.9 hPa WSW 1.6 km/h 6.4 km/h 85 % 0 mm 0 W/m2
19:54 10.9 °C 8.7 °C 1020.9 hPa WSW 1.6 km/h 6.4 km/h 86 % 0 mm 0 W/m2
19:59 10.9 °C 8.7 °C 1021.2 hPa West 1.6 km/h 4.8 km/h 86 % 0 mm 0 W/m2
20:04 10.9 °C 8.7 °C 1020.9 hPa West 1.6 km/h 3.2 km/h 86 % 0 mm 0 W/m2
20:09 10.9 °C 8.7 °C 1020.9 hPa WSW 3.2 km/h 8 km/h 86 % 0 mm 0 W/m2
20:14 10.9 °C 8.7 °C 1020.9 hPa WSW 4.8 km/h 9.7 km/h 86 % 0 mm 0 W/m2
20:19 11 °C 8.7 °C 1020.9 hPa WSW 4.8 km/h 11.3 km/h 86 % 0 mm 0 W/m2
20:24 11.1 °C 8.7 °C 1020.9 hPa West 3.2 km/h 8 km/h 85 % 0 mm 0 W/m2
20:29 11.1 °C 8.7 °C 1020.9 hPa West 6.4 km/h 9.7 km/h 85 % 0 mm 0 W/m2
20:30 11.1 °C 8.7 °C 1020.9 hPa West 6.4 km/h 9.7 km/h 85 % 0 mm 0 W/m2
20:35 11.1 °C 8.7 °C 1020.9 hPa WSW 4.8 km/h 9.7 km/h 85 % 0 mm 0 W/m2
20:40 11.1 °C 8.7 °C 1020.9 hPa SW 4.8 km/h 9.7 km/h 85 % 0 mm 0 W/m2
20:45 11.2 °C 8.6 °C 1021.2 hPa WSW 8 km/h 12.9 km/h 84 % 0 mm 0 W/m2
20:50 11.3 °C 8.7 °C 1021.2 hPa WSW 8 km/h 12.9 km/h 84 % 0 mm 0 W/m2
20:55 11.4 °C 8.8 °C 1021.2 hPa WSW 9.7 km/h 14.5 km/h 84 % 0 mm 0 W/m2
21:00 11.4 °C 8.8 °C 1021.2 hPa WSW 9.7 km/h 14.5 km/h 84 % 0 mm 0 W/m2
21:05 11.4 °C 8.8 °C 1021.2 hPa West 8 km/h 16.1 km/h 84 % 0 mm 0 W/m2
21:10 11.4 °C 8.8 °C 1021.2 hPa West 8 km/h 14.5 km/h 84 % 0 mm 0 W/m2
21:15 11.5 °C 8.9 °C 1021.2 hPa WSW 8 km/h 12.9 km/h 84 % 0 mm 0 W/m2
21:20 11.5 °C 8.9 °C 1021.6 hPa West 6.4 km/h 14.5 km/h 84 % 0 mm 0 W/m2
21:25 11.5 °C 8.9 °C 1021.2 hPa West 6.4 km/h 12.9 km/h 84 % 0 mm 0 W/m2
21:30 11.5 °C 8.9 °C 1021.2 hPa West 4.8 km/h 8 km/h 84 % 0 mm 0 W/m2
21:35 11.5 °C 8.9 °C 1021.6 hPa West 3.2 km/h 8 km/h 84 % 0 mm 0 W/m2
21:40 11.4 °C 8.8 °C 1021.6 hPa Calm     84 % 0 mm 0 W/m2
21:45 11.3 °C 8.7 °C 1021.6 hPa Calm   1.6 km/h 84 % 0 mm 0 W/m2
21:50 11.2 °C 8.8 °C 1021.6 hPa Calm     85 % 0 mm 0 W/m2
21:55 11 °C 8.6 °C 1021.6 hPa Calm   1.6 km/h 85 % 0 mm 0 W/m2
22:00 10.9 °C 8.7 °C 1021.6 hPa Calm     86 % 0 mm 0 W/m2
22:05 10.8 °C 8.6 °C 1021.6 hPa Calm   1.6 km/h 86 % 0 mm 0 W/m2
22:10 10.7 °C 8.4 °C 1021.6 hPa Calm   1.6 km/h 86 % 0 mm 0 W/m2
22:15 10.6 °C 8.5 °C 1021.6 hPa Calm   1.6 km/h 87 % 0 mm 0 W/m2
22:20 10.4 °C 8.3 °C 1021.6 hPa Calm   1.6 km/h 87 % 0 mm 0 W/m2
22:25 10.3 °C 8.2 °C 1021.6 hPa East 1.6 km/h 3.2 km/h 87 % 0 mm 0 W/m2
22:30 10.2 °C 8.1 °C 1021.6 hPa East 1.6 km/h 3.2 km/h 87 % 0 mm 0 W/m2
22:35 10.2 °C 8.3 °C 1021.6 hPa East 1.6 km/h 6.4 km/h 88 % 0 mm 0 W/m2
22:40 10.1 °C 8.2 °C 1021.2 hPa East 1.6 km/h 3.2 km/h 88 % 0 mm 0 W/m2
22:45 10.1 °C 8.4 °C 1021.6 hPa Calm   1.6 km/h 89 % 0 mm 0 W/m2
22:50 10.1 °C 8.4 °C 1021.6 hPa Calm   1.6 km/h 89 % 0 mm 0 W/m2
22:55 10.1 °C 8.4 °C 1021.6 hPa Calm     89 % 0 mm 0 W/m2
23:00 10 °C 8.3 °C 1021.6 hPa Calm     89 % 0 mm 0 W/m2
23:05 10 °C 8.3 °C 1021.6 hPa Calm     89 % 0 mm 0 W/m2
23:10 9.9 °C 8.2 °C 1021.6 hPa Calm     89 % 0 mm 0 W/m2
23:15 9.9 °C 8.2 °C 1021.9 hPa Calm   1.6 km/h 89 % 0 mm 0 W/m2
23:20 9.9 °C 8.3 °C 1021.9 hPa Calm   1.6 km/h 90 % 0 mm 0 W/m2
23:25 10 °C 8.4 °C 1021.9 hPa Calm   1.6 km/h 90 % 0 mm 0 W/m2
23:30 10.1 °C 8.6 °C 1021.9 hPa SW 1.6 km/h 3.2 km/h 90 % 0 mm 0 W/m2
23:35 10.1 °C 8.6 °C 1021.9 hPa Calm     90 % 0 mm 0 W/m2
23:40 10.1 °C 8.6 °C 1021.9 hPa Calm   3.2 km/h 90 % 0 mm 0 W/m2
23:45 10.1 °C 8.6 °C 1021.9 hPa Calm   3.2 km/h 90 % 0 mm 0 W/m2
23:50 10.1 °C 8.6 °C 1021.9 hPa West 1.6 km/h 3.2 km/h 90 % 0 mm 0 W/m2
23:55 10.1 °C 8.6 °C 1021.9 hPa West 1.6 km/h 1.6 km/h 90 % 0 mm 0 W/m2
Delerius-Weather
Compliments of Weather Underground - 2.25 mb

Data updates at regular intervals.